createdAt,value
2018-10-11T00:01:24.330Z,7.20
2018-10-11T00:03:54.049Z,8.58
2018-10-11T00:06:24.269Z,8.10
2018-10-11T00:08:55.041Z,8.50
2018-10-11T00:11:24.591Z,7.72
2018-10-11T00:13:54.068Z,7.58
2018-10-11T00:16:23.507Z,8.05
2018-10-11T00:18:53.109Z,8.00
2018-10-11T00:21:22.521Z,8.20
2018-10-11T00:23:51.987Z,7.87
2018-10-11T00:26:21.442Z,8.50
2018-10-11T00:28:51.070Z,8.63
2018-10-11T00:31:20.665Z,7.72
2018-10-11T00:33:50.279Z,8.15
2018-10-11T00:36:19.785Z,7.87
2018-10-11T00:38:49.321Z,8.03
2018-10-11T00:41:19.719Z,7.78
2018-10-11T00:43:49.345Z,9.13
2018-10-11T00:46:19.069Z,8.30
2018-10-11T00:48:48.453Z,8.35
2018-10-11T00:51:17.863Z,8.25
2018-10-11T00:53:48.432Z,8.08
2018-10-11T00:56:17.872Z,7.60
2018-10-11T00:58:47.405Z,7.95
2018-10-11T01:01:16.724Z,8.05
2018-10-11T01:03:46.220Z,8.23
2018-10-11T01:06:15.603Z,8.88
2018-10-11T01:08:45.094Z,7.70
2018-10-11T01:11:15.379Z,8.88
2018-10-11T01:13:45.408Z,8.98
2018-10-11T01:16:14.933Z,7.62
2018-10-11T01:18:44.531Z,8.53
2018-10-11T01:21:13.952Z,9.08
2018-10-11T01:23:43.415Z,9.75
2018-10-11T01:26:12.874Z,7.92
2018-10-11T01:28:42.340Z,8.75
2018-10-11T01:31:17.067Z,8.15
2018-10-11T01:33:46.548Z,8.03
2018-10-11T01:36:15.968Z,8.48
2018-10-11T01:38:47.301Z,9.15
2018-10-11T01:41:16.875Z,8.15
2018-10-11T01:43:47.195Z,8.25
2018-10-11T01:46:16.750Z,8.30
2018-10-11T01:48:46.912Z,8.60
2018-10-11T01:51:16.309Z,7.83
2018-10-11T01:53:45.926Z,7.90
2018-10-11T01:56:15.437Z,8.20
2018-10-11T01:58:44.953Z,9.63
2018-10-11T02:01:14.341Z,8.48
2018-10-11T02:03:43.781Z,9.00
2018-10-11T02:06:13.350Z,8.83
2018-10-11T02:08:42.880Z,7.60
2018-10-11T02:11:12.597Z,8.38
2018-10-11T02:13:42.064Z,10.28
2018-10-11T02:16:11.418Z,8.73
2018-10-11T02:18:41.900Z,11.03
2018-10-11T02:21:11.655Z,8.63
2018-10-11T02:23:41.044Z,9.00
2018-10-11T02:26:10.511Z,9.33
2018-10-11T02:28:39.906Z,8.85
2018-10-11T02:31:09.294Z,8.58
2018-10-11T02:33:38.811Z,8.70
2018-10-11T02:36:08.416Z,8.58
2018-10-11T02:38:37.977Z,8.15
2018-10-11T02:41:07.743Z,7.70
2018-10-11T02:43:37.121Z,7.90
2018-10-11T02:46:06.940Z,8.23
2018-10-11T02:48:36.426Z,8.43
2018-10-11T02:51:06.705Z,8.13
2018-10-11T02:53:36.282Z,8.80
2018-10-11T02:56:06.849Z,8.68
2018-10-11T02:58:53.191Z,8.90
2018-10-11T03:01:23.693Z,9.58
2018-10-11T03:04:06.509Z,9.48
2018-10-11T03:06:37.937Z,9.18
2018-10-11T03:09:08.688Z,11.08
2018-10-11T03:11:38.779Z,8.10
2018-10-11T03:14:08.394Z,9.15
2018-10-11T03:16:37.798Z,8.20
2018-10-11T03:19:07.276Z,9.63
2018-10-11T03:21:36.724Z,9.10
2018-10-11T03:24:06.059Z,8.40
2018-10-11T03:26:35.925Z,8.20
2018-10-11T03:29:05.472Z,9.20
2018-10-11T03:31:34.956Z,9.53
2018-10-11T03:34:04.591Z,8.50
2018-10-11T03:36:33.988Z,8.50
2018-10-11T03:39:03.795Z,8.88
2018-10-11T03:41:33.301Z,9.45
2018-10-11T03:44:02.773Z,8.90
2018-10-11T03:46:33.082Z,9.18
2018-10-11T03:49:02.624Z,8.88
2018-10-11T03:51:32.035Z,8.68
2018-10-11T03:54:01.525Z,10.10
2018-10-11T03:56:31.017Z,8.68
2018-10-11T03:59:00.601Z,8.48
2018-10-11T04:01:31.460Z,8.15
2018-10-11T04:04:01.059Z,8.70
2018-10-11T04:06:30.538Z,9.33
2018-10-11T04:09:00.041Z,9.08
2018-10-11T04:11:29.573Z,8.88
2018-10-11T04:13:59.126Z,9.33
2018-10-11T04:16:28.673Z,8.53
2018-10-11T04:18:58.134Z,8.58
2018-10-11T04:21:27.740Z,8.05
2018-10-11T04:23:57.341Z,9.28
2018-10-11T04:26:26.839Z,8.63
2018-10-11T04:28:56.344Z,9.03
2018-10-11T04:31:25.771Z,8.63
2018-10-11T04:33:55.202Z,8.30
2018-10-11T04:36:24.921Z,8.43
2018-10-11T04:38:54.396Z,9.28
2018-10-11T04:41:23.821Z,8.18
2018-10-11T04:43:53.234Z,8.60
2018-10-11T04:46:22.606Z,8.13
2018-10-11T04:48:51.980Z,7.85
2018-10-11T04:51:21.331Z,7.47
2018-10-11T04:53:56.128Z,8.83
2018-10-11T04:56:27.572Z,8.70
2018-10-11T04:58:57.728Z,8.35
2018-10-11T05:01:27.699Z,8.33
2018-10-11T05:03:57.330Z,16.05
2018-10-11T05:06:26.723Z,20.27
2018-10-11T05:08:56.906Z,11.28
2018-10-11T05:11:26.465Z,9.20
2018-10-11T05:13:58.205Z,10.15
2018-10-11T05:16:27.666Z,7.87
2018-10-11T05:19:03.346Z,7.92
2018-10-11T05:21:32.814Z,10.80
2018-10-11T05:24:02.200Z,8.48
2018-10-11T05:26:31.613Z,9.28
2018-10-11T05:29:01.039Z,10.93
2018-10-11T05:31:31.078Z,15.18
2018-10-11T05:34:00.499Z,9.58
2018-10-11T05:36:29.889Z,9.90
2018-10-11T05:38:59.282Z,10.45
2018-10-11T05:41:28.683Z,9.43
2018-10-11T05:43:58.144Z,10.30
2018-10-11T05:46:30.516Z,10.58
2018-10-11T05:49:01.387Z,9.48
2018-10-11T05:51:31.978Z,9.35
2018-10-11T05:54:02.793Z,10.45
2018-10-11T05:56:34.962Z,9.33
2018-10-11T05:59:04.981Z,8.68
2018-10-11T06:01:34.889Z,9.60
2018-10-11T06:04:05.966Z,9.48
2018-10-11T06:06:35.340Z,11.30
2018-10-11T06:09:06.034Z,10.43
2018-10-11T06:11:35.528Z,9.73
2018-10-11T06:14:04.974Z,10.65
2018-10-11T06:16:34.499Z,9.65
2018-10-11T06:19:04.141Z,9.35
2018-10-11T06:21:33.600Z,10.28
2018-10-11T06:24:03.045Z,9.93
2018-10-11T06:26:32.498Z,10.58
2018-10-11T06:29:02.055Z,9.70
2018-10-11T06:31:31.578Z,9.63
2018-10-11T06:34:01.107Z,11.53
2018-10-11T06:36:30.850Z,10.23
2018-10-11T06:39:00.974Z,10.32
2018-10-11T06:41:30.512Z,10.28
2018-10-11T06:44:00.050Z,10.82
2018-10-11T06:46:29.641Z,12.35
2018-10-11T06:48:59.194Z,10.93
2018-10-11T06:51:29.329Z,10.80
2018-10-11T06:53:58.834Z,11.60
2018-10-11T06:56:28.237Z,11.48
2018-10-11T06:58:57.665Z,11.08
2018-10-11T07:01:27.094Z,10.35
2018-10-11T07:03:56.469Z,10.10
2018-10-11T07:06:25.891Z,12.10
2018-10-11T07:08:55.271Z,13.08
2018-10-11T07:11:24.739Z,11.10
2018-10-11T07:13:54.251Z,11.57
2018-10-11T07:16:23.636Z,12.25
2018-10-11T07:18:52.990Z,11.50
2018-10-11T07:21:22.392Z,11.35
2018-10-11T07:23:51.772Z,11.78
2018-10-11T07:26:21.268Z,12.93
2018-10-11T07:28:50.725Z,12.63
2018-10-11T07:31:20.132Z,13.00
2018-10-11T07:33:49.547Z,12.95
2018-10-11T07:36:18.922Z,12.37
2018-10-11T07:38:48.360Z,15.63
2018-10-11T07:41:17.798Z,13.38
2018-10-11T07:43:47.184Z,18.37
2018-10-11T07:46:16.707Z,15.15
2018-10-11T07:48:46.083Z,15.05
2018-10-11T07:51:15.488Z,16.25
2018-10-11T07:53:44.880Z,14.47
2018-10-11T07:56:14.269Z,14.18
2018-10-11T07:58:43.686Z,12.98
2018-10-11T08:01:13.098Z,12.82
2018-10-11T08:03:42.437Z,11.57
2018-10-11T08:06:11.888Z,11.00
2018-10-11T08:08:41.283Z,11.15
2018-10-11T08:11:10.749Z,12.30
2018-10-11T08:13:40.106Z,13.98
2018-10-11T08:16:09.762Z,10.50
2018-10-11T08:18:39.104Z,9.40
2018-10-11T08:21:08.434Z,11.90
2018-10-11T08:23:37.902Z,12.40
2018-10-11T08:26:08.079Z,11.68
2018-10-11T08:28:37.349Z,12.28
2018-10-11T08:31:07.247Z,11.20
2018-10-11T08:33:37.303Z,13.98
2018-10-11T08:36:06.740Z,12.78
2018-10-11T08:38:36.217Z,10.38
2018-10-11T08:41:05.580Z,12.40
2018-10-11T08:43:34.997Z,10.50
2018-10-11T08:46:04.395Z,11.35
2018-10-11T08:48:33.799Z,9.50
2018-10-11T08:51:03.207Z,9.50
2018-10-11T08:53:32.679Z,8.95
2018-10-11T08:56:02.061Z,9.93
2018-10-11T08:58:31.463Z,8.73
2018-10-11T09:01:00.988Z,9.70
2018-10-11T09:03:31.869Z,9.73
2018-10-11T09:06:01.128Z,7.87
2018-10-11T09:08:30.516Z,7.78
2018-10-11T09:10:59.953Z,7.53
2018-10-11T09:13:29.285Z,8.03
2018-10-11T09:15:58.677Z,8.35
2018-10-11T09:18:28.059Z,6.85
2018-10-11T09:20:57.441Z,7.70
2018-10-11T09:23:26.816Z,7.72
2018-10-11T09:25:56.200Z,7.12
2018-10-11T09:28:25.578Z,7.12
2018-10-11T09:30:54.924Z,5.85
2018-10-11T09:33:24.294Z,8.08
2018-10-11T09:35:53.683Z,6.62
2018-10-11T09:38:23.055Z,6.92
2018-10-11T09:40:52.501Z,7.72
2018-10-11T09:43:21.957Z,7.17
2018-10-11T09:45:51.337Z,7.58
2018-10-11T09:48:21.424Z,9.23
2018-10-11T09:50:50.857Z,6.75
2018-10-11T09:53:20.265Z,6.85
2018-10-11T09:55:49.767Z,5.95
2018-10-11T09:58:19.120Z,7.37
2018-10-11T10:00:53.917Z,5.65
2018-10-11T10:03:23.417Z,5.62
2018-10-11T10:05:52.833Z,6.95
2018-10-11T10:08:22.265Z,7.75
2018-10-11T10:10:51.640Z,6.42
2018-10-11T10:13:21.023Z,6.62
2018-10-11T10:15:51.025Z,7.60
2018-10-11T10:18:20.460Z,6.28
2018-10-11T10:20:49.886Z,7.70
2018-10-11T10:23:19.315Z,6.80
2018-10-11T10:25:48.791Z,6.50
2018-10-11T10:28:18.243Z,7.83
2018-10-11T10:30:53.715Z,6.05
2018-10-11T10:33:24.235Z,6.08
2018-10-11T10:35:53.714Z,6.33
2018-10-11T10:38:23.781Z,6.22
2018-10-11T10:40:53.200Z,6.28
2018-10-11T10:43:22.577Z,5.62
2018-10-11T10:45:52.190Z,6.85
2018-10-11T10:48:21.585Z,6.25
2018-10-11T10:50:50.989Z,8.13
2018-10-11T10:53:20.369Z,6.25
2018-10-11T10:55:49.781Z,5.90
2018-10-11T10:58:19.227Z,6.33
2018-10-11T11:00:48.702Z,8.30
2018-10-11T11:03:18.283Z,6.60
2018-10-11T11:05:47.710Z,6.97
2018-10-11T11:08:17.166Z,6.25
2018-10-11T11:10:46.636Z,5.58
2018-10-11T11:13:16.078Z,5.33
2018-10-11T11:15:45.445Z,5.75
2018-10-11T11:18:14.857Z,5.85
2018-10-11T11:20:44.273Z,6.35
2018-10-11T11:23:13.665Z,8.83
2018-10-11T11:25:43.090Z,5.37
2018-10-11T11:28:12.516Z,6.05
2018-10-11T11:30:41.926Z,5.75
2018-10-11T11:33:11.287Z,6.17
2018-10-11T11:35:40.941Z,7.10
2018-10-11T11:38:10.567Z,5.40
2018-10-11T11:40:40.032Z,5.87
2018-10-11T11:43:09.452Z,6.45
2018-10-11T11:45:39.038Z,7.25
2018-10-11T11:48:08.447Z,7.12
2018-10-11T11:50:37.995Z,5.95
2018-10-11T11:53:07.441Z,6.60
2018-10-11T11:55:36.866Z,6.78
2018-10-11T11:58:06.382Z,6.85
2018-10-11T12:00:35.761Z,8.78
2018-10-11T12:03:05.198Z,6.17
2018-10-11T12:05:34.655Z,5.65
2018-10-11T12:08:04.064Z,6.12
2018-10-11T12:10:33.500Z,11.57
2018-10-11T12:13:03.980Z,5.72
2018-10-11T12:15:34.045Z,6.95
2018-10-11T12:18:04.361Z,6.65
2018-10-11T12:20:35.007Z,5.85
2018-10-11T12:23:05.505Z,6.15
2018-10-11T12:25:35.174Z,6.05
2018-10-11T12:28:04.654Z,6.37
2018-10-11T12:30:34.141Z,7.85
2018-10-11T12:33:03.883Z,7.33
2018-10-11T12:35:33.277Z,6.80
2018-10-11T12:38:02.961Z,7.35
2018-10-11T12:40:32.426Z,7.45
2018-10-11T12:43:01.870Z,6.15
2018-10-11T12:45:31.266Z,6.15
2018-10-11T12:48:00.679Z,6.15
2018-10-11T12:50:30.102Z,5.37
2018-10-11T12:52:59.668Z,7.42
2018-10-11T12:55:29.128Z,9.25
2018-10-11T12:57:58.579Z,5.95
2018-10-11T13:00:28.017Z,6.33
2018-10-11T13:02:57.521Z,9.40
2018-10-11T13:05:26.942Z,6.03
2018-10-11T13:07:56.393Z,6.53
2018-10-11T13:10:25.774Z,7.62
2018-10-11T13:12:56.614Z,7.37
2018-10-11T13:15:25.021Z,6.33
2018-10-11T13:17:54.457Z,6.87
2018-10-11T13:20:23.848Z,6.20
2018-10-11T13:22:53.300Z,5.78
2018-10-11T13:25:22.668Z,6.53
2018-10-11T13:27:52.096Z,6.65
2018-10-11T13:30:21.582Z,6.12
2018-10-11T13:32:51.152Z,6.05
2018-10-11T13:35:20.674Z,6.15
2018-10-11T13:37:50.038Z,6.25
2018-10-11T13:40:19.528Z,7.60
2018-10-11T13:42:48.988Z,5.92
2018-10-11T13:45:18.412Z,5.87
2018-10-11T13:47:47.898Z,6.33
2018-10-11T13:50:17.436Z,6.95
2018-10-11T13:52:46.861Z,6.30
2018-10-11T13:55:16.244Z,6.15
2018-10-11T13:57:45.624Z,7.05
2018-10-11T14:00:15.108Z,10.75
2018-10-11T14:02:44.601Z,7.53
2018-10-11T14:05:13.960Z,6.12
2018-10-11T14:07:43.374Z,9.33
2018-10-11T14:10:12.789Z,5.87
2018-10-11T14:12:42.217Z,6.30
2018-10-11T14:15:11.753Z,6.17
2018-10-11T14:17:41.222Z,6.22
2018-10-11T14:20:10.649Z,5.97
2018-10-11T14:22:40.151Z,6.87
2018-10-11T14:25:09.591Z,8.23
2018-10-11T14:27:39.026Z,6.95
2018-10-11T14:30:08.455Z,6.70
2018-10-11T14:32:37.829Z,8.95
2018-10-11T14:35:07.519Z,6.42
2018-10-11T14:37:36.915Z,6.67
2018-10-11T14:40:06.372Z,7.35
2018-10-11T14:42:35.999Z,6.47
2018-10-11T14:45:06.860Z,6.53
2018-10-11T14:47:37.164Z,9.20
2018-10-11T14:50:06.622Z,6.60
2018-10-11T14:52:36.009Z,6.10
2018-10-11T14:55:05.526Z,6.80
2018-10-11T14:57:34.949Z,5.72
2018-10-11T15:00:04.463Z,7.37
2018-10-11T15:02:33.808Z,6.83
2018-10-11T15:05:03.251Z,6.35
2018-10-11T15:07:32.654Z,6.12
2018-10-11T15:10:02.419Z,7.95
2018-10-11T15:12:31.822Z,9.73
2018-10-11T15:15:01.241Z,7.28
2018-10-11T15:17:30.720Z,6.40
2018-10-11T15:20:00.217Z,5.72
2018-10-11T15:22:29.675Z,6.40
2018-10-11T15:24:59.166Z,6.97
2018-10-11T15:27:28.585Z,6.30
2018-10-11T15:29:57.977Z,7.95
2018-10-11T15:32:27.487Z,6.33
2018-10-11T15:34:56.881Z,6.33
2018-10-11T15:37:26.370Z,6.85
2018-10-11T15:39:55.850Z,7.92
2018-10-11T15:42:25.325Z,7.30
2018-10-11T15:44:54.767Z,6.50
2018-10-11T15:47:24.196Z,6.97
2018-10-11T15:49:53.576Z,6.62
2018-10-11T15:52:23.154Z,7.00
2018-10-11T15:54:52.569Z,7.58
2018-10-11T15:57:22.244Z,7.47
2018-10-11T15:59:51.658Z,7.37
2018-10-11T16:02:21.089Z,9.13
2018-10-11T16:04:50.506Z,6.92
2018-10-11T16:07:20.025Z,7.35
2018-10-11T16:09:49.476Z,7.08
2018-10-11T16:12:18.865Z,6.97
2018-10-11T16:14:48.349Z,7.28
2018-10-11T16:17:17.763Z,8.35
2018-10-11T16:19:47.224Z,8.75
2018-10-11T16:22:16.621Z,8.80
2018-10-11T16:24:46.080Z,8.85
2018-10-11T16:27:15.462Z,6.87
2018-10-11T16:29:44.854Z,7.53
2018-10-11T16:32:14.382Z,8.08
2018-10-11T16:34:43.898Z,8.60
2018-10-11T16:37:13.369Z,6.87
2018-10-11T16:39:42.731Z,8.88
2018-10-11T16:42:12.272Z,10.80
2018-10-11T16:44:41.774Z,7.90
2018-10-11T16:47:11.289Z,7.75
2018-10-11T16:49:41.250Z,9.55
2018-10-11T16:52:10.725Z,12.45
2018-10-11T16:54:42.733Z,9.53
2018-10-11T16:57:14.179Z,10.78
2018-10-11T16:59:43.685Z,8.78
2018-10-11T17:02:13.489Z,9.15
2018-10-11T17:04:42.943Z,9.13
2018-10-11T17:07:12.404Z,8.88
2018-10-11T17:09:41.907Z,8.83
2018-10-11T17:12:11.188Z,9.83
2018-10-11T17:14:40.586Z,8.85
2018-10-11T17:17:09.949Z,9.08
2018-10-11T17:19:40.368Z,10.05
2018-10-11T17:22:09.858Z,9.68
2018-10-11T17:24:39.161Z,9.80
2018-10-11T17:27:08.788Z,10.85
2018-10-11T17:29:38.351Z,8.93
2018-10-11T17:32:08.260Z,9.33
2018-10-11T17:34:37.809Z,10.72
2018-10-11T17:37:07.576Z,9.18
2018-10-11T17:39:37.638Z,12.25
2018-10-11T17:44:31.761Z,12.50
2018-10-11T17:47:01.147Z,9.55
2018-10-11T17:49:30.550Z,10.63
2018-10-11T17:51:59.939Z,8.88
2018-10-11T17:54:29.384Z,9.93
2018-10-11T17:56:58.893Z,11.28
2018-10-11T17:59:28.299Z,9.18
2018-10-11T18:01:57.894Z,10.60
2018-10-11T18:04:27.464Z,9.35
2018-10-11T18:06:56.880Z,9.23
2018-10-11T18:09:26.508Z,9.78
2018-10-11T18:11:56.594Z,10.78
2018-10-11T18:14:26.088Z,10.98
2018-10-11T18:16:56.440Z,11.48
2018-10-11T18:19:25.963Z,9.33
2018-10-11T18:21:55.450Z,10.55
2018-10-11T18:24:25.521Z,10.65
2018-10-11T18:26:55.469Z,10.80
2018-10-11T18:29:24.984Z,11.18
2018-10-11T18:31:54.566Z,15.65
2018-10-11T18:34:24.068Z,10.72
2018-10-11T18:36:53.506Z,11.15
2018-10-11T18:39:22.875Z,11.63
2018-10-11T18:41:52.386Z,10.55
2018-10-11T18:44:21.939Z,14.00
2018-10-11T18:46:51.434Z,10.38
2018-10-11T18:49:20.962Z,10.80
2018-10-11T18:51:50.335Z,11.57
2018-10-11T18:54:19.767Z,9.88
2018-10-11T18:56:49.254Z,11.70
2018-10-11T18:59:18.707Z,10.28
2018-10-11T19:01:48.244Z,10.93
2018-10-11T19:04:17.682Z,12.28
2018-10-11T19:06:47.149Z,11.05
2018-10-11T19:09:17.187Z,12.78
2018-10-11T19:11:46.671Z,10.85
2018-10-11T19:14:16.201Z,12.55
2018-10-11T19:16:45.732Z,12.20
2018-10-11T19:19:21.822Z,12.33
2018-10-11T19:21:51.369Z,10.65
2018-10-11T19:24:21.011Z,12.30
2018-10-11T19:26:50.906Z,13.35
2018-10-11T19:29:20.327Z,11.30
2018-10-11T19:31:49.935Z,12.73
2018-10-11T19:34:19.578Z,12.35
2018-10-11T19:36:49.065Z,12.95
2018-10-11T19:39:18.566Z,13.03
2018-10-11T19:41:47.932Z,11.78
2018-10-11T19:44:17.870Z,12.33
2018-10-11T19:46:47.349Z,14.53
2018-10-11T19:49:17.830Z,12.53
2018-10-11T19:51:47.225Z,13.08
2018-10-11T19:54:16.657Z,13.03
2018-10-11T19:56:46.157Z,12.15
2018-10-11T19:59:15.613Z,12.30
2018-10-11T20:01:45.802Z,13.08
2018-10-11T20:04:15.926Z,13.43
2018-10-11T20:06:45.630Z,15.95
2018-10-11T20:09:15.046Z,12.82
2018-10-11T20:11:44.650Z,12.43
2018-10-11T20:14:14.087Z,13.50
2018-10-11T20:16:43.670Z,12.90
2018-10-11T20:19:13.186Z,12.88
2018-10-11T20:21:42.562Z,13.48
2018-10-11T20:24:11.927Z,14.23
2018-10-11T20:26:41.412Z,12.00
2018-10-11T20:29:11.000Z,14.90
2018-10-11T20:31:40.519Z,13.45
2018-10-11T20:34:09.965Z,13.40
2018-10-11T20:36:39.462Z,13.48
2018-10-11T20:39:10.566Z,12.15
2018-10-11T20:41:40.304Z,13.15
2018-10-11T20:44:09.870Z,12.65
2018-10-11T20:46:40.281Z,13.88
2018-10-11T20:49:10.157Z,12.40
2018-10-11T20:51:39.764Z,11.97
2018-10-11T20:54:09.125Z,14.58
2018-10-11T20:56:38.511Z,12.25
2018-10-11T20:59:08.911Z,12.25
2018-10-11T21:01:38.438Z,11.60
2018-10-11T21:04:08.485Z,12.05
2018-10-11T21:06:37.857Z,11.57
2018-10-11T21:09:09.771Z,14.15
2018-10-11T21:11:39.156Z,11.30
2018-10-11T21:14:08.615Z,11.15
2018-10-11T21:16:38.342Z,11.95
2018-10-11T21:19:08.446Z,11.90
2018-10-11T21:21:38.855Z,11.35
2018-10-11T21:24:08.309Z,13.45
2018-10-11T21:26:38.810Z,11.50
2018-10-11T21:29:08.251Z,11.80
2018-10-11T21:31:37.837Z,12.37
2018-10-11T21:34:07.498Z,13.95
2018-10-11T21:36:36.957Z,11.85
2018-10-11T21:39:11.577Z,11.45
2018-10-11T21:41:41.491Z,12.00
2018-10-11T21:44:11.122Z,12.28
2018-10-11T21:46:40.483Z,13.60
2018-10-11T21:49:09.885Z,12.20
2018-10-11T21:51:39.427Z,12.15
2018-10-11T21:54:08.926Z,11.85
2018-10-11T21:56:38.315Z,11.78
2018-10-11T21:59:07.905Z,12.23
2018-10-11T22:01:38.330Z,11.00
2018-10-11T22:04:07.821Z,11.30
2018-10-11T22:06:37.376Z,12.43
2018-10-11T22:09:07.961Z,12.03
2018-10-11T22:11:37.473Z,12.43
2018-10-11T22:14:07.414Z,12.15
2018-10-11T22:16:36.866Z,10.72
2018-10-11T22:19:06.382Z,11.33
2018-10-11T22:21:36.050Z,12.07
2018-10-11T22:24:05.565Z,11.93
2018-10-11T22:26:34.943Z,12.37
2018-10-11T22:29:04.682Z,11.43
2018-10-11T22:31:34.123Z,13.18
2018-10-11T22:34:03.461Z,11.43
2018-10-11T22:36:32.879Z,10.98
2018-10-11T22:39:02.359Z,11.85
2018-10-11T22:41:31.976Z,11.97
2018-10-11T22:44:02.255Z,11.90
2018-10-11T22:46:32.745Z,14.80
2018-10-11T22:49:02.199Z,12.13
2018-10-11T22:51:31.619Z,12.28
2018-10-11T22:54:01.482Z,11.90
2018-10-11T22:56:30.968Z,12.07
2018-10-11T22:59:00.317Z,11.12
2018-10-11T23:01:29.768Z,12.10
2018-10-11T23:03:59.666Z,12.00
2018-10-11T23:06:29.190Z,10.82
2018-10-11T23:08:58.581Z,10.48
2018-10-11T23:11:27.982Z,10.85
2018-10-11T23:13:57.524Z,10.65
2018-10-11T23:16:26.949Z,10.60
2018-10-11T23:18:56.424Z,10.45
2018-10-11T23:21:25.768Z,12.00
2018-10-11T23:23:55.655Z,10.88
2018-10-11T23:26:25.226Z,11.68
2018-10-11T23:28:54.684Z,11.93
2018-10-11T23:31:24.240Z,10.70
2018-10-11T23:33:53.575Z,11.28
2018-10-11T23:36:22.991Z,10.72
2018-10-11T23:38:52.505Z,10.00
2018-10-11T23:41:21.918Z,9.78
2018-10-11T23:43:51.245Z,11.30
2018-10-11T23:46:21.126Z,11.08
2018-10-11T23:48:50.536Z,10.75
2018-10-11T23:51:19.905Z,10.00
2018-10-11T23:53:49.280Z,9.80
2018-10-11T23:56:18.613Z,10.38
2018-10-11T23:58:48.069Z,9.88
